createdAt,value
2022-10-17T00:00:01.999Z,99188.84
2022-10-17T00:02:06.448Z,99186.38
2022-10-17T00:04:08.123Z,99187.47
2022-10-17T00:06:12.720Z,99189.72
2022-10-17T00:08:16.512Z,99197.47
2022-10-17T00:10:19.299Z,99192.25
2022-10-17T00:12:20.917Z,99196.09
2022-10-17T00:14:22.740Z,99195.56
2022-10-17T00:16:30.081Z,99199.69
2022-10-17T00:18:33.044Z,99194.19
2022-10-17T00:20:35.872Z,99196.41
2022-10-17T00:22:37.328Z,99194.75
2022-10-17T00:24:39.148Z,99206.34
2022-10-17T00:26:41.105Z,99198.63
2022-10-17T00:28:45.592Z,99193.41
2022-10-17T00:30:55.848Z,99200.34
2022-10-17T00:33:00.209Z,99199.50
2022-10-17T00:35:02.144Z,99207.25
2022-10-17T00:37:03.708Z,99205.59
2022-10-17T00:39:05.827Z,99209.75
2022-10-17T00:41:08.986Z,99200.94
2022-10-17T00:43:17.345Z,99197.34
2022-10-17T00:45:26.996Z,99195.41
2022-10-17T00:47:30.492Z,99205.09
2022-10-17T00:49:35.801Z,99209.78
2022-10-17T00:51:45.317Z,99207.31
2022-10-17T00:53:48.031Z,99204.84
2022-10-17T00:55:52.923Z,99202.09
2022-10-17T00:57:55.435Z,99195.75
2022-10-17T01:00:02.602Z,99201.25
2022-10-17T01:02:08.681Z,99196.84
2022-10-17T01:04:10.422Z,99201.53
2022-10-17T01:06:14.516Z,99213.41
2022-10-17T01:08:16.618Z,99207.03
2022-10-17T01:10:19.263Z,99205.41
2022-10-17T01:13:10.287Z,99223.38
2022-10-17T01:15:34.726Z,99224.19
2022-10-17T01:17:42.447Z,99221.69
2022-10-17T01:19:49.960Z,99212.59
2022-10-17T01:22:03.661Z,99215.34
2022-10-17T01:24:23.741Z,99222.00
2022-10-17T01:26:40.162Z,99215.94
2022-10-17T01:29:18.298Z,99212.63
2022-10-17T01:31:42.662Z,99216.50
2022-10-17T01:33:56.405Z,99223.41
2022-10-17T01:36:07.939Z,99216.22
2022-10-17T01:38:23.648Z,99212.94
2022-10-17T01:40:30.826Z,99212.94
2022-10-17T01:42:36.236Z,99208.81
2022-10-17T01:44:54.262Z,99206.31
2022-10-17T01:47:09.673Z,99209.38
2022-10-17T01:49:14.468Z,99208.28
2022-10-17T01:51:29.279Z,99203.03
2022-10-17T01:53:34.777Z,99205.78
2022-10-17T01:55:40.542Z,99204.69
2022-10-17T01:57:48.102Z,99205.78
2022-10-17T01:59:55.215Z,99208.53
2022-10-17T02:02:00.600Z,99214.06
2022-10-17T02:04:04.021Z,99206.91
2022-10-17T02:06:06.560Z,99215.44
2022-10-17T02:08:09.771Z,99214.63
2022-10-17T02:10:21.989Z,99214.06
2022-10-17T02:12:50.153Z,99210.78
2022-10-17T02:15:04.091Z,99206.38
2022-10-17T02:17:18.821Z,99207.50
2022-10-17T02:19:29.510Z,99206.38
2022-10-17T02:21:35.632Z,99211.06
2022-10-17T02:24:11.728Z,99214.09
2022-10-17T02:26:33.871Z,99208.59
2022-10-17T02:28:56.994Z,99208.03
2022-10-17T02:31:04.314Z,99205.00
2022-10-17T02:33:12.727Z,99209.72
2022-10-17T02:35:15.723Z,99213.28
2022-10-17T02:37:27.298Z,99221.84
2022-10-17T02:39:30.795Z,99216.31
2022-10-17T02:41:34.176Z,99223.75
2022-10-17T02:43:37.829Z,99224.59
2022-10-17T02:45:42.656Z,99221.84
2022-10-17T02:48:09.184Z,99224.88
2022-10-17T02:50:11.794Z,99217.41
2022-10-17T02:52:27.479Z,99216.88
2022-10-17T02:54:35.634Z,99221.31
2022-10-17T02:56:42.991Z,99225.97
2022-10-17T02:58:50.675Z,99233.44
2022-10-17T03:00:53.271Z,99230.66
2022-10-17T03:02:55.820Z,99230.66
2022-10-17T03:04:57.570Z,99228.22
2022-10-17T03:07:01.622Z,99232.06
2022-10-17T03:09:04.151Z,99226.53
2022-10-17T03:11:06.137Z,99232.34
2022-10-17T03:13:08.358Z,99227.94
2022-10-17T03:15:14.391Z,99233.75
2022-10-17T03:17:16.400Z,99235.66
2022-10-17T03:19:18.014Z,99232.06
2022-10-17T03:21:19.735Z,99239.53
2022-10-17T03:23:21.338Z,99245.31
2022-10-17T03:25:23.038Z,99261.88
2022-10-17T03:27:25.366Z,99255.53
2022-10-17T03:29:26.967Z,99256.66
2022-10-17T03:31:29.298Z,99247.81
2022-10-17T03:33:31.499Z,99262.72
2022-10-17T03:35:33.444Z,99262.19
2022-10-17T03:37:35.205Z,99260.50
2022-10-17T03:39:36.709Z,99264.38
2022-10-17T03:41:38.367Z,99255.84
2022-10-17T03:43:40.346Z,99265.22
2022-10-17T03:45:42.948Z,99269.34
2022-10-17T03:47:46.489Z,99273.22
2022-10-17T03:49:53.578Z,99265.19
2022-10-17T03:51:56.274Z,99268.50
2022-10-17T03:54:03.154Z,99273.75
2022-10-17T03:56:12.376Z,99277.88
2022-10-17T03:58:14.099Z,99272.63
2022-10-17T04:00:15.846Z,99276.50
2022-10-17T04:02:17.473Z,99270.47
2022-10-17T04:04:19.191Z,99277.06
2022-10-17T04:06:22.001Z,99267.13
2022-10-17T04:08:23.907Z,99278.44
2022-10-17T04:10:40.172Z,99270.47
2022-10-17T04:12:42.130Z,99278.16
2022-10-17T04:14:44.317Z,99271.00
2022-10-17T04:16:45.999Z,99274.59
2022-10-17T04:18:57.571Z,99268.25
2022-10-17T04:21:03.242Z,99276.53
2022-10-17T04:23:05.758Z,99279.28
2022-10-17T04:25:11.440Z,99274.88
2022-10-17T04:27:19.392Z,99274.88
2022-10-17T04:29:21.741Z,99277.91
2022-10-17T04:31:26.025Z,99280.66
2022-10-17T04:33:43.111Z,99277.06
2022-10-17T04:35:54.739Z,99271.56
2022-10-17T04:37:56.468Z,99277.91
2022-10-17T04:39:58.024Z,99273.22
2022-10-17T04:41:59.708Z,99281.22
2022-10-17T04:44:01.563Z,99281.50
2022-10-17T04:46:14.393Z,99274.88
2022-10-17T04:48:16.234Z,99288.09
2022-10-17T04:50:18.275Z,99280.66
2022-10-17T04:52:38.105Z,99285.03
2022-10-17T04:54:39.785Z,99278.44
2022-10-17T04:56:47.332Z,99284.78
2022-10-17T04:58:49.907Z,99282.03
2022-10-17T05:00:52.117Z,99282.03
2022-10-17T05:02:57.424Z,99288.38
2022-10-17T05:04:59.670Z,99283.13
2022-10-17T05:07:01.952Z,99288.63
2022-10-17T05:09:18.381Z,99291.69
2022-10-17T05:11:23.806Z,99290.31
2022-10-17T05:13:33.072Z,99291.41
2022-10-17T05:15:39.028Z,99290.56
2022-10-17T05:17:41.674Z,99287.56
2022-10-17T05:19:43.489Z,99289.47
2022-10-17T05:21:45.247Z,99292.78
2022-10-17T05:23:47.680Z,99295.53
2022-10-17T05:25:54.663Z,99308.78
2022-10-17T05:27:58.608Z,99301.88
2022-10-17T05:30:00.388Z,99301.34
2022-10-17T05:32:06.035Z,99310.69
2022-10-17T05:34:11.571Z,99309.59
2022-10-17T05:36:16.669Z,99303.81
2022-10-17T05:38:20.640Z,99309.59
2022-10-17T05:40:25.169Z,99310.69
2022-10-17T05:42:28.934Z,99315.38
2022-10-17T05:44:32.241Z,99314.81
2022-10-17T05:46:37.861Z,99311.22
2022-10-17T05:48:39.416Z,99320.63
2022-10-17T05:50:41.828Z,99320.06
2022-10-17T05:52:54.192Z,99326.66
2022-10-17T05:54:56.880Z,99327.75
2022-10-17T05:56:58.508Z,99331.34
2022-10-17T05:59:04.862Z,99336.03
2022-10-17T06:01:18.304Z,99340.72
2022-10-17T06:03:21.157Z,99338.22
2022-10-17T06:05:23.175Z,99344.56
2022-10-17T06:07:25.268Z,99340.97
2022-10-17T06:09:29.902Z,99342.91
2022-10-17T06:11:31.690Z,99349.25
2022-10-17T06:13:34.349Z,99348.41
2022-10-17T06:15:40.496Z,99343.19
2022-10-17T06:17:46.366Z,99341.28
2022-10-17T06:19:49.032Z,99341.28
2022-10-17T06:21:51.004Z,99344.84
2022-10-17T06:23:57.657Z,99345.66
2022-10-17T06:26:06.181Z,99343.75
2022-10-17T06:28:08.175Z,99348.16
2022-10-17T06:30:10.594Z,99348.72
2022-10-17T06:32:14.962Z,99351.19
2022-10-17T06:34:27.669Z,99343.50
2022-10-17T06:36:29.197Z,99346.78
2022-10-17T06:38:31.446Z,99358.06
2022-10-17T06:40:37.098Z,99356.69
2022-10-17T06:42:39.460Z,99361.66
2022-10-17T06:44:43.385Z,99367.47
2022-10-17T06:47:03.917Z,99372.44
2022-10-17T06:49:07.330Z,99376.56
2022-10-17T06:51:22.996Z,99379.34
2022-10-17T06:53:30.865Z,99373.25
2022-10-17T06:55:44.233Z,99381.81
2022-10-17T06:57:58.894Z,99383.72
2022-10-17T07:00:15.991Z,99382.91
2022-10-17T07:02:25.986Z,99385.66
2022-10-17T07:04:28.793Z,99391.19
2022-10-17T07:06:30.284Z,99386.81
2022-10-17T07:08:35.540Z,99396.72
2022-10-17T07:10:40.845Z,99391.19
2022-10-17T07:12:45.791Z,99388.44
2022-10-17T07:14:47.633Z,99383.47
2022-10-17T07:16:49.186Z,99393.94
2022-10-17T07:18:54.436Z,99395.59
2022-10-17T07:20:56.411Z,99401.63
2022-10-17T07:22:58.034Z,99403.81
2022-10-17T07:24:59.646Z,99402.16
2022-10-17T07:27:04.870Z,99399.94
2022-10-17T07:29:07.489Z,99395.47
2022-10-17T07:31:16.712Z,99396.00
2022-10-17T07:33:21.321Z,99394.34
2022-10-17T07:35:23.033Z,99387.13
2022-10-17T07:37:25.486Z,99396.75
2022-10-17T07:39:32.042Z,99398.94
2022-10-17T07:41:35.244Z,99402.19
2022-10-17T07:43:37.195Z,99409.63
2022-10-17T07:45:41.074Z,99415.13
2022-10-17T07:47:43.229Z,99412.34
2022-10-17T07:49:47.885Z,99409.56
2022-10-17T07:51:49.871Z,99402.34
2022-10-17T07:53:51.802Z,99407.84
2022-10-17T07:55:53.323Z,99414.44
2022-10-17T07:57:54.978Z,99409.72
2022-10-17T07:59:56.653Z,99414.69
2022-10-17T08:01:59.374Z,99416.59
2022-10-17T08:04:01.056Z,99412.16
2022-10-17T08:06:03.794Z,99418.47
2022-10-17T08:08:05.436Z,99418.44
2022-10-17T08:12:18.556Z,99411.19
2022-10-17T08:14:22.386Z,99412.25
2022-10-17T08:16:23.972Z,99411.69
2022-10-17T08:18:25.534Z,99413.31
2022-10-17T08:20:27.132Z,99415.72
2022-10-17T08:22:28.870Z,99418.44
2022-10-17T08:24:33.041Z,99414.81
2022-10-17T08:26:37.029Z,99421.66
2022-10-17T08:28:40.549Z,99411.38
2022-10-17T08:30:42.157Z,99409.06
2022-10-17T08:32:43.724Z,99398.47
2022-10-17T08:34:45.354Z,99406.16
2022-10-17T08:36:46.960Z,99396.72
2022-10-17T08:38:52.618Z,99399.38
2022-10-17T08:41:04.910Z,99407.03
2022-10-17T08:43:48.067Z,99394.19
2022-10-17T08:46:00.998Z,99395.41
2022-10-17T08:48:09.529Z,99399.72
2022-10-17T08:50:31.829Z,99394.03
2022-10-17T08:52:40.096Z,99397.19
2022-10-17T08:54:46.196Z,99396.75
2022-10-17T08:56:52.746Z,99394.66
2022-10-17T08:58:54.394Z,99402.25
2022-10-17T09:01:13.185Z,99398.19
2022-10-17T09:03:38.585Z,99403.50
2022-10-17T09:05:40.007Z,99401.81
2022-10-17T09:07:59.888Z,99390.47
2022-10-17T09:10:15.612Z,99388.66
2022-10-17T09:12:28.213Z,99384.78
2022-10-17T09:14:49.672Z,99387.75
2022-10-17T09:17:06.527Z,99382.25
2022-10-17T09:19:28.847Z,99377.53
2022-10-17T09:21:39.406Z,99376.63
2022-10-17T09:23:59.702Z,99375.72
2022-10-17T09:26:12.332Z,99376.88
2022-10-17T09:28:24.795Z,99387.34
2022-10-17T09:30:44.140Z,99378.84
2022-10-17T09:32:47.721Z,99382.81
2022-10-17T09:34:51.010Z,99381.31
2022-10-17T09:36:52.860Z,99377.31
2022-10-17T09:39:10.285Z,99385.63
2022-10-17T09:41:43.634Z,99383.22
2022-10-17T09:43:42.279Z,99384.75
2022-10-17T09:46:08.378Z,99377.22
2022-10-17T09:48:13.820Z,99384.31
2022-10-17T09:50:23.228Z,99375.69
2022-10-17T09:52:33.783Z,99378.69
2022-10-17T09:55:09.366Z,99373.59
2022-10-17T09:57:13.189Z,99375.91
2022-10-17T09:59:31.746Z,99371.66
2022-10-17T10:01:36.338Z,99373.78
2022-10-17T10:03:37.994Z,99372.66
2022-10-17T10:05:40.663Z,99374.31
2022-10-17T10:07:45.790Z,99378.28
2022-10-17T10:09:49.108Z,99367.81
2022-10-17T10:11:54.419Z,99370.84
2022-10-17T10:14:12.223Z,99372.72
2022-10-17T10:16:32.104Z,99366.50
2022-10-17T10:18:36.709Z,99380.41
2022-10-17T10:20:38.305Z,99370.56
2022-10-17T10:22:40.296Z,99376.44
2022-10-17T10:24:42.108Z,99375.81
2022-10-17T10:26:46.433Z,99370.91
2022-10-17T10:29:21.106Z,99373.94
2022-10-17T10:31:32.319Z,99371.81
2022-10-17T10:33:40.430Z,99371.69
2022-10-17T10:35:52.122Z,99376.69
2022-10-17T10:37:56.425Z,99380.88
2022-10-17T10:40:03.849Z,99377.81
2022-10-17T10:42:09.022Z,99369.94
2022-10-17T10:44:16.090Z,99371.69
2022-10-17T10:46:28.288Z,99370.19
2022-10-17T10:48:36.604Z,99360.66
2022-10-17T10:50:46.302Z,99367.19
2022-10-17T10:52:56.602Z,99357.69
2022-10-17T10:55:20.479Z,99352.53
2022-10-17T10:57:29.831Z,99351.81
2022-10-17T10:59:51.784Z,99343.47
2022-10-17T11:02:24.570Z,99346.81
2022-10-17T11:04:42.377Z,99348.56
2022-10-17T11:06:49.925Z,99348.66
2022-10-17T11:09:03.853Z,99343.94
2022-10-17T11:11:28.621Z,99342.03
2022-10-17T11:13:49.591Z,99345.75
2022-10-17T11:16:04.934Z,99347.03
2022-10-17T11:18:24.417Z,99351.56
2022-10-17T11:20:38.753Z,99350.06
2022-10-17T11:22:46.511Z,99351.31
2022-10-17T11:24:56.973Z,99355.41
2022-10-17T11:27:07.619Z,99357.13
2022-10-17T11:29:12.557Z,99358.78
2022-10-17T11:31:20.235Z,99357.59
2022-10-17T11:33:38.089Z,99349.16
2022-10-17T11:35:44.566Z,99354.41
2022-10-17T11:38:16.747Z,99347.13
2022-10-17T11:40:42.216Z,99351.16
2022-10-17T11:43:18.885Z,99354.03
2022-10-17T11:45:25.286Z,99348.88
2022-10-17T11:47:49.579Z,99351.69
2022-10-17T11:49:58.398Z,99341.72
2022-10-17T11:52:44.324Z,99339.34
2022-10-17T11:55:03.438Z,99342.69
2022-10-17T11:57:39.247Z,99348.06
2022-10-17T12:00:07.486Z,99344.19
2022-10-17T12:02:18.043Z,99345.56
2022-10-17T12:04:38.402Z,99347.72
2022-10-17T12:07:09.298Z,99343.47
2022-10-17T12:09:32.660Z,99346.47
2022-10-17T12:12:00.425Z,99339.81
2022-10-17T12:14:24.632Z,99339.63
2022-10-17T12:16:29.335Z,99334.94
2022-10-17T12:18:31.134Z,99325.81
2022-10-17T12:20:40.214Z,99311.09
2022-10-17T12:22:48.155Z,99313.97
2022-10-17T12:25:04.353Z,99303.97
2022-10-17T12:27:24.375Z,99306.06
2022-10-17T12:29:30.230Z,99304.50
2022-10-17T12:31:34.069Z,99300.56
2022-10-17T12:33:48.250Z,99297.81
2022-10-17T12:35:51.469Z,99307.16
2022-10-17T12:37:58.563Z,99293.50
2022-10-17T12:40:00.931Z,99290.75
2022-10-17T12:42:02.544Z,99296.00
2022-10-17T12:44:13.786Z,99298.03
2022-10-17T12:46:46.791Z,99288.75
2022-10-17T12:49:01.202Z,99292.41
2022-10-17T12:51:37.318Z,99287.09
2022-10-17T12:53:55.913Z,99290.31
2022-10-17T12:56:02.376Z,99295.56
2022-10-17T12:58:14.578Z,99302.41
2022-10-17T13:00:34.515Z,99307.22
2022-10-17T13:02:36.406Z,99311.31
2022-10-17T13:04:38.073Z,99308.50
2022-10-17T13:06:51.017Z,99306.50
2022-10-17T13:09:27.154Z,99305.66
2022-10-17T13:11:32.236Z,99310.56
2022-10-17T13:13:52.583Z,99324.19
2022-10-17T13:15:55.335Z,99340.78
2022-10-17T13:17:59.352Z,99335.13
2022-10-17T13:20:01.803Z,99333.91
2022-10-17T13:22:17.931Z,99332.66
2022-10-17T13:24:37.809Z,99330.22
2022-10-17T13:26:45.859Z,99331.06
2022-10-17T13:29:02.606Z,99336.16
2022-10-17T13:31:04.479Z,99338.56
2022-10-17T13:33:28.955Z,99334.03
2022-10-17T13:35:55.733Z,99338.41
2022-10-17T13:37:57.507Z,99346.34
2022-10-17T13:40:16.182Z,99347.06
2022-10-17T13:42:31.619Z,99350.97
2022-10-17T13:44:35.448Z,99348.91
2022-10-17T13:46:39.877Z,99349.63
2022-10-17T13:48:43.577Z,99345.56
2022-10-17T13:50:50.213Z,99339.03
2022-10-17T13:53:08.260Z,99344.97
2022-10-17T13:55:17.464Z,99338.88
2022-10-17T13:57:23.642Z,99344.44
2022-10-17T13:59:32.243Z,99341.53
2022-10-17T14:01:34.268Z,99341.47
2022-10-17T14:03:47.824Z,99344.19
2022-10-17T14:06:28.116Z,99338.38
2022-10-17T14:08:34.847Z,99331.88
2022-10-17T14:10:38.443Z,99334.59
2022-10-17T14:12:42.827Z,99338.13
2022-10-17T14:15:09.180Z,99339.22
2022-10-17T14:17:15.997Z,99344.75
2022-10-17T14:19:30.249Z,99348.66
2022-10-17T14:21:43.451Z,99344.97
2022-10-17T14:23:46.199Z,99342.44
2022-10-17T14:25:48.328Z,99341.06
2022-10-17T14:27:58.110Z,99343.44
2022-10-17T14:30:02.665Z,99348.13
2022-10-17T14:32:11.298Z,99352.03
2022-10-17T14:34:25.034Z,99353.16
2022-10-17T14:36:42.905Z,99358.22
2022-10-17T14:38:47.455Z,99356.94
2022-10-17T14:41:37.455Z,99355.09
2022-10-17T14:43:30.369Z,99361.81
2022-10-17T14:45:42.530Z,99364.56
2022-10-17T14:47:51.924Z,99357.16
2022-10-17T14:50:07.898Z,99361.44
2022-10-17T14:52:18.292Z,99365.34
2022-10-17T14:54:26.370Z,99366.41
2022-10-17T14:56:48.739Z,99368.69
2022-10-17T14:58:52.882Z,99368.94
2022-10-17T15:00:55.923Z,99370.81
2022-10-17T15:02:57.702Z,99360.66
2022-10-17T15:04:59.378Z,99367.38
2022-10-17T15:07:01.108Z,99368.41
2022-10-17T15:09:04.686Z,99366.66
2022-10-17T15:11:06.465Z,99370.09
2022-10-17T15:13:27.646Z,99371.97
2022-10-17T15:15:31.763Z,99367.78
2022-10-17T15:19:52.514Z,99370.97
2022-10-17T15:21:54.349Z,99372.88
2022-10-17T15:23:56.496Z,99380.72
2022-10-17T15:25:58.039Z,99376.19
2022-10-17T15:28:02.096Z,99368.34
2022-10-17T15:30:26.370Z,99374.53
2022-10-17T15:32:28.005Z,99377.59
2022-10-17T15:34:29.699Z,99381.00
2022-10-17T15:36:40.198Z,99375.63
2022-10-17T15:38:41.738Z,99383.47
2022-10-17T15:40:46.377Z,99386.50
2022-10-17T15:42:51.187Z,99386.75
2022-10-17T15:44:53.335Z,99388.97
2022-10-17T15:46:55.671Z,99389.56
2022-10-17T15:49:02.526Z,99387.31
2022-10-17T15:51:06.871Z,99385.91
2022-10-17T15:53:12.287Z,99392.06
2022-10-17T15:55:20.209Z,99393.81
2022-10-17T15:57:26.104Z,99395.09
2022-10-17T15:59:35.406Z,99392.84
2022-10-17T16:01:38.349Z,99395.41
2022-10-17T16:03:42.955Z,99395.97
2022-10-17T16:05:44.487Z,99399.69
2022-10-17T16:07:46.813Z,99397.75
2022-10-17T16:09:49.632Z,99402.75
2022-10-17T16:11:51.239Z,99398.88
2022-10-17T16:13:56.786Z,99393.00
2022-10-17T16:16:00.437Z,99395.56
2022-10-17T16:18:04.390Z,99395.28
2022-10-17T16:20:10.103Z,99392.22
2022-10-17T16:22:34.563Z,99399.03
2022-10-17T16:24:36.245Z,99401.53
2022-10-17T16:26:39.615Z,99412.13
2022-10-17T16:28:46.076Z,99411.03
2022-10-17T16:30:49.210Z,99407.13
2022-10-17T16:32:52.008Z,99412.44
2022-10-17T16:34:53.687Z,99405.75
2022-10-17T16:36:58.698Z,99423.09
2022-10-17T16:39:03.205Z,99417.16
2022-10-17T16:41:21.486Z,99418.38
2022-10-17T16:43:23.210Z,99418.41
2022-10-17T16:45:27.125Z,99414.50
2022-10-17T16:47:31.749Z,99419.78
2022-10-17T16:49:33.479Z,99430.34
2022-10-17T16:51:37.810Z,99413.59
2022-10-17T16:53:45.621Z,99423.66
2022-10-17T16:55:58.507Z,99427.75
2022-10-17T16:58:00.166Z,99420.91
2022-10-17T17:00:02.104Z,99423.38
2022-10-17T17:02:03.990Z,99428.59
2022-10-17T17:04:05.742Z,99431.75
2022-10-17T17:06:08.603Z,99428.66
2022-10-17T17:08:12.505Z,99428.16
2022-10-17T17:10:14.399Z,99428.66
2022-10-17T17:12:18.794Z,99427.03
2022-10-17T17:14:20.363Z,99431.47
2022-10-17T17:16:23.929Z,99429.75
2022-10-17T17:18:25.493Z,99428.59
2022-10-17T17:20:27.077Z,99430.22
2022-10-17T17:22:28.743Z,99425.50
2022-10-17T17:24:30.263Z,99429.38
2022-10-17T17:26:37.550Z,99437.41
2022-10-17T17:28:40.104Z,99439.88
2022-10-17T17:30:41.838Z,99440.66
2022-10-17T17:32:43.521Z,99437.88
2022-10-17T17:34:45.052Z,99446.66
2022-10-17T17:36:46.585Z,99449.91
2022-10-17T17:38:49.492Z,99462.69
2022-10-17T17:40:51.702Z,99459.84
2022-10-17T17:42:53.372Z,99466.69
2022-10-17T17:44:55.063Z,99471.88
2022-10-17T17:46:56.754Z,99477.94
2022-10-17T17:48:58.808Z,99483.13
2022-10-17T17:51:04.908Z,99476.66
2022-10-17T17:53:07.806Z,99479.91
2022-10-17T17:55:09.570Z,99481.97
2022-10-17T17:57:11.132Z,99489.13
2022-10-17T17:59:13.651Z,99485.13
2022-10-17T18:01:22.261Z,99484.75
2022-10-17T18:03:25.070Z,99483.53
2022-10-17T18:05:27.162Z,99485.63
2022-10-17T18:07:30.387Z,99488.53
2022-10-17T18:09:32.006Z,99486.47
2022-10-17T18:11:34.116Z,99497.22
2022-10-17T18:13:35.775Z,99507.63
2022-10-17T18:15:40.722Z,99503.59
2022-10-17T18:17:42.607Z,99508.75
2022-10-17T18:19:44.269Z,99509.16
2022-10-17T18:21:48.838Z,99502.38
2022-10-17T18:23:51.904Z,99516.38
2022-10-17T18:25:58.143Z,99518.75
2022-10-17T18:27:59.735Z,99507.75
2022-10-17T18:30:01.445Z,99509.28
2022-10-17T18:32:06.138Z,99512.47
2022-10-17T18:34:07.900Z,99509.81
2022-10-17T18:36:11.434Z,99515.75
2022-10-17T18:38:13.270Z,99515.06
2022-10-17T18:40:14.954Z,99516.22
2022-10-17T18:42:16.620Z,99521.88
2022-10-17T18:44:18.289Z,99517.25
2022-10-17T18:46:25.593Z,99522.06
2022-10-17T18:48:27.161Z,99517.72
2022-10-17T18:50:28.729Z,99513.41
2022-10-17T18:52:30.510Z,99514.59
2022-10-17T18:54:33.458Z,99512.75
2022-10-17T18:56:42.423Z,99519.50
2022-10-17T18:58:44.480Z,99519.59
2022-10-17T19:00:50.993Z,99511.66
2022-10-17T19:02:55.618Z,99522.84
2022-10-17T19:04:57.203Z,99520.44
2022-10-17T19:06:58.737Z,99524.13
2022-10-17T19:09:05.717Z,99525.81
2022-10-17T19:11:07.401Z,99524.25
2022-10-17T19:13:11.757Z,99528.75
2022-10-17T19:15:16.001Z,99528.81
2022-10-17T19:17:17.785Z,99530.00
2022-10-17T19:19:22.686Z,99533.38
2022-10-17T19:21:24.735Z,99532.94
2022-10-17T19:23:29.112Z,99543.81
2022-10-17T19:25:31.044Z,99537.50
2022-10-17T19:27:32.881Z,99543.13
2022-10-17T19:29:34.622Z,99538.16
2022-10-17T19:31:36.273Z,99545.72
2022-10-17T19:33:37.883Z,99549.38
2022-10-17T19:35:41.311Z,99541.13
2022-10-17T19:37:42.938Z,99547.28
2022-10-17T19:39:44.847Z,99541.78
2022-10-17T19:41:47.912Z,99531.59
2022-10-17T19:43:49.807Z,99546.31
2022-10-17T19:45:59.552Z,99547.47
2022-10-17T19:48:01.173Z,99550.84
2022-10-17T19:52:05.748Z,99539.59
2022-10-17T19:54:08.386Z,99548.78
2022-10-17T19:56:11.511Z,99548.53
2022-10-17T19:58:15.949Z,99547.47
2022-10-17T20:00:17.492Z,99552.78
2022-10-17T20:02:19.193Z,99552.81
2022-10-17T20:04:21.903Z,99560.03
2022-10-17T20:06:24.158Z,99561.47
2022-10-17T20:10:34.484Z,99561.28
2022-10-17T20:12:36.262Z,99569.06
2022-10-17T20:14:41.001Z,99567.13
2022-10-17T20:16:44.837Z,99576.06
2022-10-17T20:18:46.474Z,99568.59
2022-10-17T20:20:48.288Z,99574.72
2022-10-17T20:22:49.842Z,99571.69
2022-10-17T20:24:51.386Z,99576.19
2022-10-17T20:26:52.950Z,99574.78
2022-10-17T20:28:58.035Z,99575.34
2022-10-17T20:30:59.688Z,99572.31
2022-10-17T20:33:01.297Z,99570.97
2022-10-17T20:35:04.311Z,99571.84
2022-10-17T20:37:05.997Z,99579.59
2022-10-17T20:39:08.403Z,99577.72
2022-10-17T20:41:10.408Z,99577.13
2022-10-17T20:43:13.370Z,99574.97
2022-10-17T20:45:15.228Z,99583.00
2022-10-17T20:47:39.950Z,99588.28
2022-10-17T20:49:38.269Z,99581.97
2022-10-17T20:51:39.946Z,99598.00
2022-10-17T20:53:41.460Z,99596.94
2022-10-17T20:55:43.469Z,99593.09
2022-10-17T20:57:45.246Z,99590.91
2022-10-17T20:59:46.850Z,99596.16
2022-10-17T21:01:48.552Z,99596.72
2022-10-17T21:03:50.673Z,99606.44
2022-10-17T21:05:55.221Z,99608.94
2022-10-17T21:07:57.000Z,99606.44
2022-10-17T21:10:12.183Z,99610.06
2022-10-17T21:12:30.908Z,99606.25
2022-10-17T21:14:43.904Z,99612.31
2022-10-17T21:16:46.664Z,99611.78
2022-10-17T21:18:49.504Z,99601.28
2022-10-17T21:20:51.192Z,99611.25
2022-10-17T21:22:52.994Z,99612.34
2022-10-17T21:24:54.565Z,99619.25
2022-10-17T21:26:57.480Z,99613.44
2022-10-17T21:29:03.118Z,99605.72
2022-10-17T21:31:09.773Z,99601.03
2022-10-17T21:33:11.349Z,99600.22
2022-10-17T21:35:12.984Z,99604.94
2022-10-17T21:37:14.476Z,99595.53
2022-10-17T21:39:17.135Z,99590.31
2022-10-17T21:41:20.949Z,99596.94
2022-10-17T21:43:22.829Z,99587.81
2022-10-17T21:45:25.812Z,99587.00
2022-10-17T21:47:29.590Z,99588.41
2022-10-17T21:49:31.499Z,99594.47
2022-10-17T21:51:33.132Z,99590.34
2022-10-17T21:53:35.404Z,99601.94
2022-10-17T21:55:37.650Z,99594.50
2022-10-17T21:57:39.283Z,99595.06
2022-10-17T21:59:40.866Z,99588.16
2022-10-17T22:01:44.812Z,99591.47
2022-10-17T22:03:49.883Z,99597.56
2022-10-17T22:06:06.904Z,99593.41
2022-10-17T22:08:15.829Z,99592.31
2022-10-17T22:10:17.363Z,99594.00
2022-10-17T22:12:21.710Z,99593.44
2022-10-17T22:14:27.559Z,99596.47
2022-10-17T22:16:29.544Z,99593.44
2022-10-17T22:18:31.272Z,99596.78
2022-10-17T22:20:34.762Z,99598.16
2022-10-17T22:22:36.296Z,99603.09
2022-10-17T22:24:37.936Z,99596.78
2022-10-17T22:26:40.395Z,99598.44
2022-10-17T22:28:42.151Z,99604.25
2022-10-17T22:30:43.714Z,99604.75
2022-10-17T22:32:45.293Z,99594.25
2022-10-17T22:34:48.358Z,99592.03
2022-10-17T22:36:52.950Z,99586.53
2022-10-17T22:38:55.843Z,99576.84
2022-10-17T22:40:58.865Z,99573.56
2022-10-17T22:43:00.807Z,99581.28
2022-10-17T22:45:03.072Z,99577.16
2022-10-17T22:47:07.851Z,99578.25
2022-10-17T22:49:09.657Z,99574.38
2022-10-17T22:51:11.737Z,99586.81
2022-10-17T22:53:13.306Z,99586.53
2022-10-17T22:55:15.595Z,99574.94
2022-10-17T22:57:17.446Z,99573.28
2022-10-17T22:59:19.205Z,99582.13
2022-10-17T23:01:23.620Z,99581.28
2022-10-17T23:03:27.376Z,99580.19
2022-10-17T23:05:37.731Z,99583.22
2022-10-17T23:07:39.351Z,99577.41
2022-10-17T23:09:41.383Z,99571.06
2022-10-17T23:11:42.990Z,99577.97
2022-10-17T23:13:44.688Z,99575.75
2022-10-17T23:15:46.450Z,99562.22
2022-10-17T23:17:48.137Z,99566.34
2022-10-17T23:19:51.892Z,99567.72
2022-10-17T23:21:55.895Z,99563.59
2022-10-17T23:23:57.546Z,99571.59
2022-10-17T23:26:07.860Z,99570.22
2022-10-17T23:28:12.975Z,99569.38
2022-10-17T23:30:15.745Z,99575.44
2022-10-17T23:32:20.257Z,99572.69
2022-10-17T23:34:22.135Z,99565.78
2022-10-17T23:36:23.821Z,99575.44
2022-10-17T23:38:25.422Z,99566.59
2022-10-17T23:40:27.372Z,99558.88
2022-10-17T23:42:28.966Z,99556.66
2022-10-17T23:44:30.737Z,99557.22
2022-10-17T23:46:32.766Z,99562.75
2022-10-17T23:48:34.959Z,99559.41
2022-10-17T23:50:36.665Z,99563.53
2022-10-17T23:52:38.195Z,99560.50
2022-10-17T23:56:46.333Z,99558.78
2022-10-17T23:58:48.064Z,99570.94
